Portada
METAR-TAF:

METAR-TAF

Aeroports :

Quakertown Airport

Quakertown, Pennsilvània, Estats Units d'Amèrica

latitud: 40-26-06N, longitud: 075-22-54W, altitud: 160 m

Observació

L'informe es va fer fa 15 minuts, a les 15:20 UTC
Vent calma
Temperatura 25°C
Humitat 89%
Pressió 1011 hPa
Visibilitat: 16.1 km
Escasses núvols a una alçada de 1600 ft
Escasses núvols a una alçada de 2300 ft
Cel ennuvolat a una alçada de 5500 ft

METAR: KUKT 251520Z AUTO 00000KT 10SM FEW016 FEW023 BKN055 25/23 A2986 RMK A01

Hora: 11:35 (15:35 UTC)


TAF: manca

Observacions i pronòstics meteorològics de més de 4000 aeroports (METAR i TAF).

Les estacions disponibles són els punts grocs i vermells al mapa.

Posi el ratolí al punt desitjat per veure el nom de l'estació.

Feu clic per veure les observacions i els pronòstics meteorològics.

Per canviar el mapa: feu clic els botons verds amb una creu de color negre per apropar; al botó verd amb un guió per allunyar la imatge; o en les fletxes verdes per a mapes adjacents.


METAR-TAF: